ADDS METAR Data INFO
IDs: Format: Raw Decoded Include TAF

Data at: 1915 UTC 19 Jul 2018

KLVS 191853Z AUTO 29010G16KT 10SM CLR 27/09 A3028 RMK AO2 LTG DSNT E AND SW SLP132 T02720089
KLVS 191837Z AUTO 22003KT 10SM CLR 29/09 A3028 RMK AO2 LTG DSNT SW-N T02890089
KLVS 191805Z AUTO 21006KT 10SM VCTS CLR 29/09 A3029 RMK AO2 LTG DSNT SW-NW T02890094
KLVS 191753Z AUTO VRB03KT 10SM CLR 29/11 A3029 RMK AO2 LTG DSNT W SLP124 T02940106 10300 20139 58003
KLVS 191653Z AUTO VRB05KT 10SM CLR 29/09 A3030 RMK AO2 SLP128 T02890089
KLVS 191553Z AUTO 00000KT 10SM CLR 27/10 A3030 RMK AO2 SLP135 T02670100
KLVS 191453Z AUTO 02006KT 10SM CLR 24/11 A3030 RMK AO2 SLP128 T02440111 51010
KLVS 191353Z AUTO 05004KT 10SM CLR 21/11 A3029 RMK AO2 SLP133 T02060111
KLVS 191253Z AUTO 01006KT 10SM CLR 16/10 A3028 RMK AO2 SLP132 T01610100
KLVS 191153Z AUTO 05005KT 10SM CLR 14/09 A3026 RMK AO2 SLP127 T01390094 10189 20139 53000
KLVS 191053Z AUTO 04007KT 10SM CLR 15/09 A3026 RMK AO2 SLP120 T01500094
KLVS 190953Z AUTO 02007KT 10SM CLR 16/09 A3025 RMK AO2 SLP118 T01560094
KLVS 190853Z AUTO 34008KT 10SM CLR 17/09 A3026 RMK AO2 SLP115 T01720089 58003
KLVS 190753Z AUTO 34005KT 10SM CLR 18/10 A3026 RMK AO2 SLP120 T01780100
KLVS 190653Z AUTO 36007KT 10SM CLR 18/10 A3027 RMK AO2 SLP119 T01830100 403220133
KLVS 190553Z AUTO 01006KT 10SM CLR 19/11 A3027 RMK AO2 SLP119 T01890106 10306 20189 51004
KLVS 190453Z AUTO 14005KT 10SM CLR 20/10 A3027 RMK AO2 SLP121 T02000100
KLVS 190353Z AUTO 14009KT 10SM CLR 20/11 A3027 RMK AO2 SLP127 T02000106
KLVS 190253Z AUTO 12010KT 10SM CLR 24/09 A3026 RMK AO2 SLP121 T02390089 53007
KLVS 190153Z AUTO 12009KT 10SM CLR 25/11 A3024 RMK AO2 SLP123 T02500106
KLVS 190053Z AUTO 12005KT 10SM CLR 28/10 A3023 RMK AO2 SLP117 T02830100
KLVS 182353Z AUTO 10008KT 10SM CLR 31/07 A3023 RMK AO2 SLP116 T03060067 10322 20289 56013
KLVS 182253Z AUTO 06009KT 10SM CLR 31/06 A3024 RMK AO2 SLP115 T03110061
KLVS 182153Z AUTO 05005G18KT 10SM CLR 31/05 A3025 RMK AO2 SLP119 T03110050
KLVS 182053Z AUTO VRB05G17KT 10SM FEW100 31/05 A3028 RMK AO2 SLP124 T03110050 58009
KLVS 181953Z AUTO 09008KT 10SM SCT110 30/06 A3029 RMK AO2 SLP134 T03000061
KLVS 181853Z AUTO 03012G20KT 340V060 10SM CLR 31/07 A3030 RMK AO2 SLP129 T03060072
KLVS 181753Z AUTO 36010G15KT 10SM CLR 29/08 A3031 RMK AO2 SLP138 T02940083 10300 20133 56006
KLVS 181653Z AUTO 33009G14KT 290V360 10SM CLR 28/09 A3032 RMK AO2 SLP144 T02780094
KLVS 181553Z AUTO 00000KT 10SM CLR 26/10 A3032 RMK AO2 SLP145 T02560100
KLVS 181453Z AUTO VRB04KT 10SM CLR 22/13 A3033 RMK AO2 SLP154 T02170128 53000
KLVS 181353Z AUTO 02004KT 10SM CLR 18/13 A3033 RMK AO2 SLP159 T01830128
KLVS 181253Z AUTO 04006KT 10SM CLR 16/13 A3033 RMK AO2 SLP160 T01560128
KLVS 181153Z AUTO 07004KT 10SM CLR 13/12 A3033 RMK AO2 SLP167 T01330122 10189 20133 56001
KLVS 181053Z AUTO 05006KT 10SM BKN120 14/12 A3033 RMK AO2 SLP157 T01440122
KLVS 180953Z AUTO 35003KT 10SM FEW100 BKN120 15/12 A3033 RMK AO2 SLP159 T01500122
KLVS 180853Z AUTO 33005KT 10SM CLR 16/12 A3034 RMK AO2 SLP153 T01610122 58005
KLVS 180753Z AUTO 08005KT 10SM CLR 16/12 A3034 RMK AO2 SLP163 T01560122